sensor_id;sensor_type;location;lat;lon;timestamp;temperature;humidity
12682;DHT22;6405;59.208;18.216;2023-07-13T00:01:46;14.60;99.90
12682;DHT22;6405;59.208;18.216;2023-07-13T00:04:16;14.50;99.90
12682;DHT22;6405;59.208;18.216;2023-07-13T00:06:42;14.50;99.90
12682;DHT22;6405;59.208;18.216;2023-07-13T00:09:11;14.40;99.90
12682;DHT22;6405;59.208;18.216;2023-07-13T00:11:38;14.30;99.90
12682;DHT22;6405;59.208;18.216;2023-07-13T00:14:08;14.30;99.90
12682;DHT22;6405;59.208;18.216;2023-07-13T00:16:37;14.40;99.90
12682;DHT22;6405;59.208;18.216;2023-07-13T00:19:04;14.20;99.90
12682;DHT22;6405;59.208;18.216;2023-07-13T00:21:31;14.10;99.90
12682;DHT22;6405;59.208;18.216;2023-07-13T00:23:57;14.10;99.90
12682;DHT22;6405;59.208;18.216;2023-07-13T00:26:23;14.00;99.90
12682;DHT22;6405;59.208;18.216;2023-07-13T00:28:48;14.00;99.90
12682;DHT22;6405;59.208;18.216;2023-07-13T00:31:14;13.90;99.90
12682;DHT22;6405;59.208;18.216;2023-07-13T00:33:41;13.90;99.90
12682;DHT22;6405;59.208;18.216;2023-07-13T00:36:08;14.00;99.90
12682;DHT22;6405;59.208;18.216;2023-07-13T00:38:34;13.90;99.90
12682;DHT22;6405;59.208;18.216;2023-07-13T00:41:00;13.80;99.90
12682;DHT22;6405;59.208;18.216;2023-07-13T00:43:27;13.70;99.90
12682;DHT22;6405;59.208;18.216;2023-07-13T00:48:38;13.70;99.90
12682;DHT22;6405;59.208;18.216;2023-07-13T00:51:04;13.70;99.90
12682;DHT22;6405;59.208;18.216;2023-07-13T00:53:32;13.70;99.90
12682;DHT22;6405;59.208;18.216;2023-07-13T00:55:59;13.70;99.90
12682;DHT22;6405;59.208;18.216;2023-07-13T00:58:27;13.70;99.90
12682;DHT22;6405;59.208;18.216;2023-07-13T01:00:54;13.70;99.90
12682;DHT22;6405;59.208;18.216;2023-07-13T01:03:20;13.60;99.90
12682;DHT22;6405;59.208;18.216;2023-07-13T01:05:48;13.60;99.90
12682;DHT22;6405;59.208;18.216;2023-07-13T01:08:14;13.50;99.90
12682;DHT22;6405;59.208;18.216;2023-07-13T01:10:40;13.50;99.90
12682;DHT22;6405;59.208;18.216;2023-07-13T01:13:08;13.50;99.90
12682;DHT22;6405;59.208;18.216;2023-07-13T01:15:39;13.50;99.90
12682;DHT22;6405;59.208;18.216;2023-07-13T01:18:08;13.50;99.90
12682;DHT22;6405;59.208;18.216;2023-07-13T01:20:35;13.60;99.90
12682;DHT22;6405;59.208;18.216;2023-07-13T01:23:11;13.60;99.90
12682;DHT22;6405;59.208;18.216;2023-07-13T01:25:38;13.60;99.90
12682;DHT22;6405;59.208;18.216;2023-07-13T01:28:06;13.50;99.90
12682;DHT22;6405;59.208;18.216;2023-07-13T01:30:31;13.60;99.90
12682;DHT22;6405;59.208;18.216;2023-07-13T01:32:58;13.50;99.90
12682;DHT22;6405;59.208;18.216;2023-07-13T01:35:25;13.50;99.90
12682;DHT22;6405;59.208;18.216;2023-07-13T01:37:53;13.40;99.90
12682;DHT22;6405;59.208;18.216;2023-07-13T01:40:19;13.40;99.90
12682;DHT22;6405;59.208;18.216;2023-07-13T01:42:45;13.40;99.90
12682;DHT22;6405;59.208;18.216;2023-07-13T01:45:11;13.30;99.90
12682;DHT22;6405;59.208;18.216;2023-07-13T01:47:37;13.30;99.90
12682;DHT22;6405;59.208;18.216;2023-07-13T01:50:03;13.20;99.90
12682;DHT22;6405;59.208;18.216;2023-07-13T01:52:28;13.20;99.90
12682;DHT22;6405;59.208;18.216;2023-07-13T01:54:54;13.00;99.90
12682;DHT22;6405;59.208;18.216;2023-07-13T01:57:21;13.10;99.90
12682;DHT22;6405;59.208;18.216;2023-07-13T01:59:47;13.10;99.90
12682;DHT22;6405;59.208;18.216;2023-07-13T02:02:12;13.10;99.90
12682;DHT22;6405;59.208;18.216;2023-07-13T02:04:38;13.10;99.90
12682;DHT22;6405;59.208;18.216;2023-07-13T02:07:04;13.00;99.90
12682;DHT22;6405;59.208;18.216;2023-07-13T02:09:30;13.00;99.90
12682;DHT22;6405;59.208;18.216;2023-07-13T02:11:56;13.00;99.90
12682;DHT22;6405;59.208;18.216;2023-07-13T02:14:22;12.90;99.90
12682;DHT22;6405;59.208;18.216;2023-07-13T02:16:48;12.90;99.90
12682;DHT22;6405;59.208;18.216;2023-07-13T02:19:14;12.90;99.90
12682;DHT22;6405;59.208;18.216;2023-07-13T02:21:40;12.90;99.90
12682;DHT22;6405;59.208;18.216;2023-07-13T02:24:05;12.90;99.90
12682;DHT22;6405;59.208;18.216;2023-07-13T02:26:32;12.80;99.90
12682;DHT22;6405;59.208;18.216;2023-07-13T02:28:58;12.80;99.90
12682;DHT22;6405;59.208;18.216;2023-07-13T02:31:24;12.80;99.90
12682;DHT22;6405;59.208;18.216;2023-07-13T02:33:49;12.80;99.90
12682;DHT22;6405;59.208;18.216;2023-07-13T02:36:15;12.70;99.90
12682;DHT22;6405;59.208;18.216;2023-07-13T02:38:42;12.70;99.90
12682;DHT22;6405;59.208;18.216;2023-07-13T02:41:08;12.70;99.90
12682;DHT22;6405;59.208;18.216;2023-07-13T02:43:38;12.60;99.90
12682;DHT22;6405;59.208;18.216;2023-07-13T02:46:04;12.60;99.90
12682;DHT22;6405;59.208;18.216;2023-07-13T02:48:37;12.60;99.90
12682;DHT22;6405;59.208;18.216;2023-07-13T02:51:04;12.60;99.90
12682;DHT22;6405;59.208;18.216;2023-07-13T02:53:30;12.60;99.90
12682;DHT22;6405;59.208;18.216;2023-07-13T02:55:56;12.70;99.90
12682;DHT22;6405;59.208;18.216;2023-07-13T02:58:22;12.80;99.90
12682;DHT22;6405;59.208;18.216;2023-07-13T03:00:48;12.80;99.90
12682;DHT22;6405;59.208;18.216;2023-07-13T03:03:19;12.70;99.90
12682;DHT22;6405;59.208;18.216;2023-07-13T03:05:46;12.90;99.90
12682;DHT22;6405;59.208;18.216;2023-07-13T03:08:16;13.00;99.90
12682;DHT22;6405;59.208;18.216;2023-07-13T03:10:43;13.00;99.90
12682;DHT22;6405;59.208;18.216;2023-07-13T03:13:09;13.10;99.90
12682;DHT22;6405;59.208;18.216;2023-07-13T03:15:35;13.10;99.90
12682;DHT22;6405;59.208;18.216;2023-07-13T03:18:00;13.20;99.90
12682;DHT22;6405;59.208;18.216;2023-07-13T03:20:26;13.20;99.90
12682;DHT22;6405;59.208;18.216;2023-07-13T03:22:52;13.30;99.90
12682;DHT22;6405;59.208;18.216;2023-07-13T03:25:17;13.30;99.90
12682;DHT22;6405;59.208;18.216;2023-07-13T03:27:43;13.40;99.90
12682;DHT22;6405;59.208;18.216;2023-07-13T03:30:09;13.40;99.90
12682;DHT22;6405;59.208;18.216;2023-07-13T03:32:35;13.40;99.90
12682;DHT22;6405;59.208;18.216;2023-07-13T03:35:01;13.40;99.90
12682;DHT22;6405;59.208;18.216;2023-07-13T03:37:26;13.40;99.90
12682;DHT22;6405;59.208;18.216;2023-07-13T03:39:53;13.50;99.90
12682;DHT22;6405;59.208;18.216;2023-07-13T03:42:18;13.50;99.90
12682;DHT22;6405;59.208;18.216;2023-07-13T03:44:44;13.50;99.90
12682;DHT22;6405;59.208;18.216;2023-07-13T03:47:16;13.50;99.90
12682;DHT22;6405;59.208;18.216;2023-07-13T03:49:41;13.50;99.90
12682;DHT22;6405;59.208;18.216;2023-07-13T03:52:07;13.50;99.90
12682;DHT22;6405;59.208;18.216;2023-07-13T03:54:33;13.50;99.90
12682;DHT22;6405;59.208;18.216;2023-07-13T03:56:59;13.50;99.90
12682;DHT22;6405;59.208;18.216;2023-07-13T03:59:25;13.50;99.90
12682;DHT22;6405;59.208;18.216;2023-07-13T04:01:50;13.40;99.90
12682;DHT22;6405;59.208;18.216;2023-07-13T04:04:16;13.50;99.90
12682;DHT22;6405;59.208;18.216;2023-07-13T04:06:42;13.50;99.90
12682;DHT22;6405;59.208;18.216;2023-07-13T04:09:08;13.50;99.90
12682;DHT22;6405;59.208;18.216;2023-07-13T04:11:34;13.60;99.90
12682;DHT22;6405;59.208;18.216;2023-07-13T04:14:01;13.60;99.90
12682;DHT22;6405;59.208;18.216;2023-07-13T04:16:27;13.60;99.90
12682;DHT22;6405;59.208;18.216;2023-07-13T04:18:54;13.70;99.90
12682;DHT22;6405;59.208;18.216;2023-07-13T04:21:27;13.80;99.90
12682;DHT22;6405;59.208;18.216;2023-07-13T04:23:53;13.90;99.90
12682;DHT22;6405;59.208;18.216;2023-07-13T04:26:20;14.00;99.90
12682;DHT22;6405;59.208;18.216;2023-07-13T04:28:47;14.20;99.90
12682;DHT22;6405;59.208;18.216;2023-07-13T04:31:13;14.30;99.90
12682;DHT22;6405;59.208;18.216;2023-07-13T04:33:39;14.40;99.90
12682;DHT22;6405;59.208;18.216;2023-07-13T04:36:05;14.50;99.90
12682;DHT22;6405;59.208;18.216;2023-07-13T04:38:32;14.60;99.90
12682;DHT22;6405;59.208;18.216;2023-07-13T04:41:03;14.60;99.90
12682;DHT22;6405;59.208;18.216;2023-07-13T04:43:31;14.70;99.90
12682;DHT22;6405;59.208;18.216;2023-07-13T04:46:02;14.70;99.90
12682;DHT22;6405;59.208;18.216;2023-07-13T04:48:28;14.80;99.90
12682;DHT22;6405;59.208;18.216;2023-07-13T04:50:57;14.90;99.90
12682;DHT22;6405;59.208;18.216;2023-07-13T04:53:24;14.90;99.90
12682;DHT22;6405;59.208;18.216;2023-07-13T04:55:50;15.00;99.90
12682;DHT22;6405;59.208;18.216;2023-07-13T04:58:16;15.00;99.90
12682;DHT22;6405;59.208;18.216;2023-07-13T05:00:42;15.10;99.90
12682;DHT22;6405;59.208;18.216;2023-07-13T05:03:08;15.10;99.90
12682;DHT22;6405;59.208;18.216;2023-07-13T05:05:34;15.20;99.90
12682;DHT22;6405;59.208;18.216;2023-07-13T05:08:00;15.30;99.90
12682;DHT22;6405;59.208;18.216;2023-07-13T05:10:26;15.30;99.90
12682;DHT22;6405;59.208;18.216;2023-07-13T05:12:51;15.20;99.90
12682;DHT22;6405;59.208;18.216;2023-07-13T05:15:18;15.20;99.90
12682;DHT22;6405;59.208;18.216;2023-07-13T05:17:49;15.30;99.90
12682;DHT22;6405;59.208;18.216;2023-07-13T05:20:18;15.40;99.90
12682;DHT22;6405;59.208;18.216;2023-07-13T05:22:44;15.40;99.90
12682;DHT22;6405;59.208;18.216;2023-07-13T05:25:12;15.60;99.90
12682;DHT22;6405;59.208;18.216;2023-07-13T05:27:39;15.60;99.90
12682;DHT22;6405;59.208;18.216;2023-07-13T05:30:05;15.50;99.90
12682;DHT22;6405;59.208;18.216;2023-07-13T05:32:32;15.50;99.90
12682;DHT22;6405;59.208;18.216;2023-07-13T05:34:58;15.70;99.90
12682;DHT22;6405;59.208;18.216;2023-07-13T05:37:23;15.70;99.90
12682;DHT22;6405;59.208;18.216;2023-07-13T05:39:49;15.80;99.90
12682;DHT22;6405;59.208;18.216;2023-07-13T05:42:15;15.80;99.90
12682;DHT22;6405;59.208;18.216;2023-07-13T05:44:41;15.90;99.90
12682;DHT22;6405;59.208;18.216;2023-07-13T05:47:08;15.80;99.90
12682;DHT22;6405;59.208;18.216;2023-07-13T05:49:33;15.80;99.90
12682;DHT22;6405;59.208;18.216;2023-07-13T05:51:59;15.80;99.90
12682;DHT22;6405;59.208;18.216;2023-07-13T05:54:25;15.80;99.90
12682;DHT22;6405;59.208;18.216;2023-07-13T05:56:50;15.70;99.90
12682;DHT22;6405;59.208;18.216;2023-07-13T05:59:18;15.70;99.90
12682;DHT22;6405;59.208;18.216;2023-07-13T06:01:44;15.70;99.90
12682;DHT22;6405;59.208;18.216;2023-07-13T06:04:09;15.60;99.90
12682;DHT22;6405;59.208;18.216;2023-07-13T06:06:35;15.70;99.90
12682;DHT22;6405;59.208;18.216;2023-07-13T06:09:01;15.90;99.90
12682;DHT22;6405;59.208;18.216;2023-07-13T06:11:27;15.90;99.90
12682;DHT22;6405;59.208;18.216;2023-07-13T06:13:55;16.10;99.90
12682;DHT22;6405;59.208;18.216;2023-07-13T06:16:22;16.20;99.90
12682;DHT22;6405;59.208;18.216;2023-07-13T06:18:48;16.30;99.90
12682;DHT22;6405;59.208;18.216;2023-07-13T06:21:17;16.30;99.90
12682;DHT22;6405;59.208;18.216;2023-07-13T06:23:45;16.40;99.90
12682;DHT22;6405;59.208;18.216;2023-07-13T06:26:13;16.20;99.90
12682;DHT22;6405;59.208;18.216;2023-07-13T06:28:38;16.30;99.90
12682;DHT22;6405;59.208;18.216;2023-07-13T06:31:07;16.40;99.90
12682;DHT22;6405;59.208;18.216;2023-07-13T06:33:33;16.30;99.90
12682;DHT22;6405;59.208;18.216;2023-07-13T06:35:59;16.30;99.90
12682;DHT22;6405;59.208;18.216;2023-07-13T06:38:25;16.20;99.90
12682;DHT22;6405;59.208;18.216;2023-07-13T06:40:51;16.30;99.90
12682;DHT22;6405;59.208;18.216;2023-07-13T06:43:17;16.30;99.90
12682;DHT22;6405;59.208;18.216;2023-07-13T06:45:45;16.30;99.90
12682;DHT22;6405;59.208;18.216;2023-07-13T06:48:13;16.20;99.90
12682;DHT22;6405;59.208;18.216;2023-07-13T06:50:39;16.30;99.90
12682;DHT22;6405;59.208;18.216;2023-07-13T06:53:06;16.30;99.90
12682;DHT22;6405;59.208;18.216;2023-07-13T06:55:32;16.20;99.90
12682;DHT22;6405;59.208;18.216;2023-07-13T06:57:58;16.10;99.90
12682;DHT22;6405;59.208;18.216;2023-07-13T07:00:23;16.10;99.90
12682;DHT22;6405;59.208;18.216;2023-07-13T07:02:49;16.20;99.90
12682;DHT22;6405;59.208;18.216;2023-07-13T07:05:15;16.40;99.90
12682;DHT22;6405;59.208;18.216;2023-07-13T07:07:42;16.40;99.90
12682;DHT22;6405;59.208;18.216;2023-07-13T07:10:08;16.50;99.90
12682;DHT22;6405;59.208;18.216;2023-07-13T07:12:34;16.70;99.90
12682;DHT22;6405;59.208;18.216;2023-07-13T07:14:59;16.60;99.90
12682;DHT22;6405;59.208;18.216;2023-07-13T07:17:25;16.70;99.90
12682;DHT22;6405;59.208;18.216;2023-07-13T07:19:52;16.80;99.90
12682;DHT22;6405;59.208;18.216;2023-07-13T07:22:20;16.70;99.90
12682;DHT22;6405;59.208;18.216;2023-07-13T07:24:46;16.80;99.90
12682;DHT22;6405;59.208;18.216;2023-07-13T07:27:12;16.80;99.90
12682;DHT22;6405;59.208;18.216;2023-07-13T07:29:38;17.10;99.90
12682;DHT22;6405;59.208;18.216;2023-07-13T07:32:04;17.30;99.90
12682;DHT22;6405;59.208;18.216;2023-07-13T07:34:30;17.30;99.90
12682;DHT22;6405;59.208;18.216;2023-07-13T07:37:00;17.40;99.90
12682;DHT22;6405;59.208;18.216;2023-07-13T07:39:27;17.50;99.90
12682;DHT22;6405;59.208;18.216;2023-07-13T07:41:53;17.70;99.90
12682;DHT22;6405;59.208;18.216;2023-07-13T07:44:19;18.00;99.90
12682;DHT22;6405;59.208;18.216;2023-07-13T07:46:45;18.20;99.90
12682;DHT22;6405;59.208;18.216;2023-07-13T07:49:11;18.70;99.90
12682;DHT22;6405;59.208;18.216;2023-07-13T07:51:37;19.00;99.90
12682;DHT22;6405;59.208;18.216;2023-07-13T07:54:04;19.00;99.90
12682;DHT22;6405;59.208;18.216;2023-07-13T07:56:30;19.40;99.90
12682;DHT22;6405;59.208;18.216;2023-07-13T07:58:56;19.50;99.90
12682;DHT22;6405;59.208;18.216;2023-07-13T08:01:22;19.40;99.90
12682;DHT22;6405;59.208;18.216;2023-07-13T08:03:48;19.20;99.90
12682;DHT22;6405;59.208;18.216;2023-07-13T08:06:14;19.00;99.90
12682;DHT22;6405;59.208;18.216;2023-07-13T08:08:40;19.10;99.90
12682;DHT22;6405;59.208;18.216;2023-07-13T08:11:07;19.30;99.90
12682;DHT22;6405;59.208;18.216;2023-07-13T08:13:33;19.80;99.90
12682;DHT22;6405;59.208;18.216;2023-07-13T08:15:59;19.50;99.90
12682;DHT22;6405;59.208;18.216;2023-07-13T08:18:25;19.60;99.90
12682;DHT22;6405;59.208;18.216;2023-07-13T08:20:53;19.90;99.90
12682;DHT22;6405;59.208;18.216;2023-07-13T08:23:21;20.10;99.90
12682;DHT22;6405;59.208;18.216;2023-07-13T08:25:52;20.30;99.90
12682;DHT22;6405;59.208;18.216;2023-07-13T08:28:18;20.50;99.90
12682;DHT22;6405;59.208;18.216;2023-07-13T08:30:44;20.80;99.90
12682;DHT22;6405;59.208;18.216;2023-07-13T08:33:18;21.00;99.90
12682;DHT22;6405;59.208;18.216;2023-07-13T08:35:48;21.20;99.90
12682;DHT22;6405;59.208;18.216;2023-07-13T08:38:15;21.50;99.90
12682;DHT22;6405;59.208;18.216;2023-07-13T08:40:41;21.60;99.90
12682;DHT22;6405;59.208;18.216;2023-07-13T08:43:13;21.50;99.90
12682;DHT22;6405;59.208;18.216;2023-07-13T08:45:54;21.50;99.90
12682;DHT22;6405;59.208;18.216;2023-07-13T08:48:32;21.40;99.90
12682;DHT22;6405;59.208;18.216;2023-07-13T08:51:24;21.10;99.90
12682;DHT22;6405;59.208;18.216;2023-07-13T08:53:56;21.10;99.90
12682;DHT22;6405;59.208;18.216;2023-07-13T08:56:25;21.40;99.90
12682;DHT22;6405;59.208;18.216;2023-07-13T08:59:04;21.00;99.90
12682;DHT22;6405;59.208;18.216;2023-07-13T09:04:47;21.50;99.90
12682;DHT22;6405;59.208;18.216;2023-07-13T09:15:35;21.80;99.90
12682;DHT22;6405;59.208;18.216;2023-07-13T09:18:19;21.60;99.90
12682;DHT22;6405;59.208;18.216;2023-07-13T09:20:51;21.00;99.90
12682;DHT22;6405;59.208;18.216;2023-07-13T09:23:22;21.50;99.90
12682;DHT22;6405;59.208;18.216;2023-07-13T09:25:49;21.80;99.90
12682;DHT22;6405;59.208;18.216;2023-07-13T09:28:24;22.00;99.90
12682;DHT22;6405;59.208;18.216;2023-07-13T09:33:53;21.50;99.90
12682;DHT22;6405;59.208;18.216;2023-07-13T09:36:28;21.80;99.90
12682;DHT22;6405;59.208;18.216;2023-07-13T09:39:04;21.90;99.90
12682;DHT22;6405;59.208;18.216;2023-07-13T09:44:18;22.00;99.90
12682;DHT22;6405;59.208;18.216;2023-07-13T09:46:53;22.00;99.90
12682;DHT22;6405;59.208;18.216;2023-07-13T09:49:26;21.90;99.90
12682;DHT22;6405;59.208;18.216;2023-07-13T09:52:04;22.30;99.90
12682;DHT22;6405;59.208;18.216;2023-07-13T09:54:34;22.80;99.90
12682;DHT22;6405;59.208;18.216;2023-07-13T09:57:01;22.90;99.90
12682;DHT22;6405;59.208;18.216;2023-07-13T09:59:33;22.70;99.90
12682;DHT22;6405;59.208;18.216;2023-07-13T10:02:00;22.50;99.90
12682;DHT22;6405;59.208;18.216;2023-07-13T10:04:33;22.20;99.90
12682;DHT22;6405;59.208;18.216;2023-07-13T10:07:11;22.10;99.90
12682;DHT22;6405;59.208;18.216;2023-07-13T10:09:39;21.80;99.90
12682;DHT22;6405;59.208;18.216;2023-07-13T10:12:14;21.60;99.90
12682;DHT22;6405;59.208;18.216;2023-07-13T10:14:41;22.00;99.90
12682;DHT22;6405;59.208;18.216;2023-07-13T10:17:12;22.20;99.90
12682;DHT22;6405;59.208;18.216;2023-07-13T10:19:41;22.50;99.90
12682;DHT22;6405;59.208;18.216;2023-07-13T10:22:38;22.90;99.90
12682;DHT22;6405;59.208;18.216;2023-07-13T10:25:19;23.30;99.90
12682;DHT22;6405;59.208;18.216;2023-07-13T10:27:50;23.50;99.90
12682;DHT22;6405;59.208;18.216;2023-07-13T10:30:19;23.60;99.90
12682;DHT22;6405;59.208;18.216;2023-07-13T10:32:46;23.20;99.90
12682;DHT22;6405;59.208;18.216;2023-07-13T10:35:15;23.40;99.90
12682;DHT22;6405;59.208;18.216;2023-07-13T10:38:06;23.60;99.90
12682;DHT22;6405;59.208;18.216;2023-07-13T10:40:45;23.80;99.90
12682;DHT22;6405;59.208;18.216;2023-07-13T10:43:36;23.60;99.90
12682;DHT22;6405;59.208;18.216;2023-07-13T10:46:08;23.60;99.90
12682;DHT22;6405;59.208;18.216;2023-07-13T10:48:35;23.70;99.90
12682;DHT22;6405;59.208;18.216;2023-07-13T10:51:04;23.50;99.90
12682;DHT22;6405;59.208;18.216;2023-07-13T10:53:34;23.00;99.90
12682;DHT22;6405;59.208;18.216;2023-07-13T10:56:03;22.80;99.90
12682;DHT22;6405;59.208;18.216;2023-07-13T10:58:36;22.50;99.90
12682;DHT22;6405;59.208;18.216;2023-07-13T11:03:37;22.40;99.90
12682;DHT22;6405;59.208;18.216;2023-07-13T11:11:35;22.60;99.90
12682;DHT22;6405;59.208;18.216;2023-07-13T11:14:03;22.70;99.90
12682;DHT22;6405;59.208;18.216;2023-07-13T11:16:42;22.70;99.90
12682;DHT22;6405;59.208;18.216;2023-07-13T11:19:26;22.80;99.90
12682;DHT22;6405;59.208;18.216;2023-07-13T11:27:36;22.30;99.90
12682;DHT22;6405;59.208;18.216;2023-07-13T11:33:17;22.30;99.90
12682;DHT22;6405;59.208;18.216;2023-07-13T11:36:06;22.90;99.90
12682;DHT22;6405;59.208;18.216;2023-07-13T11:38:43;22.70;99.90
12682;DHT22;6405;59.208;18.216;2023-07-13T11:41:19;22.50;99.90
12682;DHT22;6405;59.208;18.216;2023-07-13T11:43:50;22.50;99.90
12682;DHT22;6405;59.208;18.216;2023-07-13T11:46:27;22.40;99.90
12682;DHT22;6405;59.208;18.216;2023-07-13T11:48:53;22.40;99.90
12682;DHT22;6405;59.208;18.216;2023-07-13T11:51:29;22.50;99.90
12682;DHT22;6405;59.208;18.216;2023-07-13T11:53:59;23.00;99.90
12682;DHT22;6405;59.208;18.216;2023-07-13T11:56:27;23.00;99.90
12682;DHT22;6405;59.208;18.216;2023-07-13T11:58:56;22.90;99.90
12682;DHT22;6405;59.208;18.216;2023-07-13T12:01:25;22.60;99.90
12682;DHT22;6405;59.208;18.216;2023-07-13T12:03:52;22.40;99.90
12682;DHT22;6405;59.208;18.216;2023-07-13T12:06:26;22.20;99.90
12682;DHT22;6405;59.208;18.216;2023-07-13T12:08:56;22.10;99.90
12682;DHT22;6405;59.208;18.216;2023-07-13T12:11:22;21.90;99.90
12682;DHT22;6405;59.208;18.216;2023-07-13T12:13:48;21.90;99.90
12682;DHT22;6405;59.208;18.216;2023-07-13T12:16:36;22.10;99.90
12682;DHT22;6405;59.208;18.216;2023-07-13T12:19:02;22.30;99.90
12682;DHT22;6405;59.208;18.216;2023-07-13T12:21:38;22.40;99.90
12682;DHT22;6405;59.208;18.216;2023-07-13T12:24:04;22.80;99.90
12682;DHT22;6405;59.208;18.216;2023-07-13T12:26:31;23.30;99.90
12682;DHT22;6405;59.208;18.216;2023-07-13T12:29:01;23.40;99.90
12682;DHT22;6405;59.208;18.216;2023-07-13T12:31:41;23.30;99.90
12682;DHT22;6405;59.208;18.216;2023-07-13T12:34:13;23.00;99.90
12682;DHT22;6405;59.208;18.216;2023-07-13T12:36:50;22.80;99.90
12682;DHT22;6405;59.208;18.216;2023-07-13T12:39:23;22.70;99.90
12682;DHT22;6405;59.208;18.216;2023-07-13T12:41:50;22.50;99.90
12682;DHT22;6405;59.208;18.216;2023-07-13T12:44:29;22.40;99.90
12682;DHT22;6405;59.208;18.216;2023-07-13T12:47:05;22.30;99.90
12682;DHT22;6405;59.208;18.216;2023-07-13T12:49:41;22.00;99.90
12682;DHT22;6405;59.208;18.216;2023-07-13T12:52:17;21.80;99.90
12682;DHT22;6405;59.208;18.216;2023-07-13T12:54:53;21.60;99.90
12682;DHT22;6405;59.208;18.216;2023-07-13T12:57:22;21.90;99.90
12682;DHT22;6405;59.208;18.216;2023-07-13T12:59:54;21.80;99.90
12682;DHT22;6405;59.208;18.216;2023-07-13T13:02:29;21.70;99.90
12682;DHT22;6405;59.208;18.216;2023-07-13T13:04:58;21.60;99.90
12682;DHT22;6405;59.208;18.216;2023-07-13T13:07:25;21.50;99.90
12682;DHT22;6405;59.208;18.216;2023-07-13T13:09:51;21.40;99.90
12682;DHT22;6405;59.208;18.216;2023-07-13T13:12:19;21.60;99.90
12682;DHT22;6405;59.208;18.216;2023-07-13T13:14:45;22.20;99.90
12682;DHT22;6405;59.208;18.216;2023-07-13T13:17:30;22.30;99.90
12682;DHT22;6405;59.208;18.216;2023-07-13T13:19:57;22.80;99.90
12682;DHT22;6405;59.208;18.216;2023-07-13T13:22:23;23.20;99.90
12682;DHT22;6405;59.208;18.216;2023-07-13T13:24:49;23.30;99.90
12682;DHT22;6405;59.208;18.216;2023-07-13T13:27:21;23.40;99.90
12682;DHT22;6405;59.208;18.216;2023-07-13T13:29:50;23.10;99.90
12682;DHT22;6405;59.208;18.216;2023-07-13T13:32:19;23.20;99.90
12682;DHT22;6405;59.208;18.216;2023-07-13T13:34:45;23.50;99.90
12682;DHT22;6405;59.208;18.216;2023-07-13T13:37:21;23.50;99.90
12682;DHT22;6405;59.208;18.216;2023-07-13T13:39:48;22.90;99.90
12682;DHT22;6405;59.208;18.216;2023-07-13T13:42:14;22.30;99.90
12682;DHT22;6405;59.208;18.216;2023-07-13T13:44:40;22.40;99.90
12682;DHT22;6405;59.208;18.216;2023-07-13T13:49:53;22.70;99.90
12682;DHT22;6405;59.208;18.216;2023-07-13T13:52:19;22.30;99.90
12682;DHT22;6405;59.208;18.216;2023-07-13T13:54:45;22.10;99.90
12682;DHT22;6405;59.208;18.216;2023-07-13T13:57:10;21.80;99.90
12682;DHT22;6405;59.208;18.216;2023-07-13T13:59:38;21.80;99.90
12682;DHT22;6405;59.208;18.216;2023-07-13T14:02:22;21.60;99.90
12682;DHT22;6405;59.208;18.216;2023-07-13T14:04:52;21.40;99.90
12682;DHT22;6405;59.208;18.216;2023-07-13T14:07:19;21.90;99.90
12682;DHT22;6405;59.208;18.216;2023-07-13T14:09:45;22.50;99.90
12682;DHT22;6405;59.208;18.216;2023-07-13T14:12:11;23.00;99.90
12682;DHT22;6405;59.208;18.216;2023-07-13T14:14:40;23.30;99.90
12682;DHT22;6405;59.208;18.216;2023-07-13T14:17:20;23.30;99.90
12682;DHT22;6405;59.208;18.216;2023-07-13T14:19:51;23.40;99.90
12682;DHT22;6405;59.208;18.216;2023-07-13T14:22:23;23.10;99.90
12682;DHT22;6405;59.208;18.216;2023-07-13T14:24:49;23.00;99.90
12682;DHT22;6405;59.208;18.216;2023-07-13T14:27:15;22.80;99.90
12682;DHT22;6405;59.208;18.216;2023-07-13T14:29:40;22.50;99.90
12682;DHT22;6405;59.208;18.216;2023-07-13T14:32:11;22.30;99.90
12682;DHT22;6405;59.208;18.216;2023-07-13T14:34:38;21.90;99.90
12682;DHT22;6405;59.208;18.216;2023-07-13T14:37:04;21.80;99.90
12682;DHT22;6405;59.208;18.216;2023-07-13T14:39:31;21.60;99.90
12682;DHT22;6405;59.208;18.216;2023-07-13T14:41:57;21.40;99.90
12682;DHT22;6405;59.208;18.216;2023-07-13T14:44:29;21.30;99.90
12682;DHT22;6405;59.208;18.216;2023-07-13T14:46:57;21.10;99.90
12682;DHT22;6405;59.208;18.216;2023-07-13T14:49:43;21.30;99.90
12682;DHT22;6405;59.208;18.216;2023-07-13T14:52:13;21.60;99.90
12682;DHT22;6405;59.208;18.216;2023-07-13T14:54:41;21.80;99.90
12682;DHT22;6405;59.208;18.216;2023-07-13T14:57:10;22.00;99.90
12682;DHT22;6405;59.208;18.216;2023-07-13T14:59:38;21.60;99.90
12682;DHT22;6405;59.208;18.216;2023-07-13T15:02:16;21.30;99.90
12682;DHT22;6405;59.208;18.216;2023-07-13T15:04:42;21.50;99.90
12682;DHT22;6405;59.208;18.216;2023-07-13T15:07:10;21.40;99.90
12682;DHT22;6405;59.208;18.216;2023-07-13T15:09:36;21.20;99.90
12682;DHT22;6405;59.208;18.216;2023-07-13T15:12:02;21.10;99.90
12682;DHT22;6405;59.208;18.216;2023-07-13T15:14:28;21.40;99.90
12682;DHT22;6405;59.208;18.216;2023-07-13T15:16:56;21.60;99.90
12682;DHT22;6405;59.208;18.216;2023-07-13T15:19:22;21.70;99.90
12682;DHT22;6405;59.208;18.216;2023-07-13T15:21:50;21.80;99.90
12682;DHT22;6405;59.208;18.216;2023-07-13T15:24:17;21.60;99.90
12682;DHT22;6405;59.208;18.216;2023-07-13T15:26:43;21.60;99.90
12682;DHT22;6405;59.208;18.216;2023-07-13T15:29:11;21.40;99.90
12682;DHT22;6405;59.208;18.216;2023-07-13T15:31:38;21.40;99.90
12682;DHT22;6405;59.208;18.216;2023-07-13T15:34:17;21.30;99.90
12682;DHT22;6405;59.208;18.216;2023-07-13T15:36:45;21.30;99.90
12682;DHT22;6405;59.208;18.216;2023-07-13T15:39:15;21.20;99.90
12682;DHT22;6405;59.208;18.216;2023-07-13T15:41:45;21.10;99.90
12682;DHT22;6405;59.208;18.216;2023-07-13T15:44:29;21.10;99.90
12682;DHT22;6405;59.208;18.216;2023-07-13T15:46:56;21.20;99.90
12682;DHT22;6405;59.208;18.216;2023-07-13T15:49:22;21.40;99.90
12682;DHT22;6405;59.208;18.216;2023-07-13T15:51:48;21.50;99.90
12682;DHT22;6405;59.208;18.216;2023-07-13T15:54:17;21.50;99.90
12682;DHT22;6405;59.208;18.216;2023-07-13T15:56:52;21.60;99.90
12682;DHT22;6405;59.208;18.216;2023-07-13T15:59:18;21.60;99.90
12682;DHT22;6405;59.208;18.216;2023-07-13T16:01:44;21.50;99.90
12682;DHT22;6405;59.208;18.216;2023-07-13T16:04:12;21.50;99.90
12682;DHT22;6405;59.208;18.216;2023-07-13T16:06:40;21.30;99.90
12682;DHT22;6405;59.208;18.216;2023-07-13T16:09:07;21.20;99.90
12682;DHT22;6405;59.208;18.216;2023-07-13T16:11:38;21.10;99.90
12682;DHT22;6405;59.208;18.216;2023-07-13T16:14:04;20.70;99.90
12682;DHT22;6405;59.208;18.216;2023-07-13T16:16:33;20.50;99.90
12682;DHT22;6405;59.208;18.216;2023-07-13T16:19:03;20.30;99.90